createdAt,value
2019-01-30T00:01:25.433Z,61.20
2019-01-30T00:03:54.466Z,70.53
2019-01-30T00:06:23.536Z,61.33
2019-01-30T00:08:52.978Z,61.13
2019-01-30T00:11:21.997Z,72.23
2019-01-30T00:13:51.362Z,57.97
2019-01-30T00:16:20.431Z,62.97
2019-01-30T00:18:49.472Z,65.80
2019-01-30T00:21:18.752Z,59.47
2019-01-30T00:23:48.231Z,60.07
2019-01-30T00:26:17.250Z,64.70
2019-01-30T00:28:46.273Z,56.30
2019-01-30T00:31:15.355Z,61.87
2019-01-30T00:33:44.760Z,52.20
2019-01-30T00:36:13.818Z,59.50
2019-01-30T00:38:42.938Z,60.83
2019-01-30T00:41:11.966Z,54.87
2019-01-30T00:43:41.078Z,59.03
2019-01-30T00:46:10.105Z,53.03
2019-01-30T00:48:39.201Z,50.30
2019-01-30T00:51:08.246Z,49.43
2019-01-30T00:53:37.282Z,54.63
2019-01-30T00:56:06.479Z,52.20
2019-01-30T00:58:35.547Z,55.50
2019-01-30T01:01:05.577Z,51.90
2019-01-30T01:03:34.637Z,60.10
2019-01-30T01:06:03.958Z,53.00
2019-01-30T01:08:33.325Z,53.73
2019-01-30T01:11:02.396Z,53.37
2019-01-30T01:13:31.462Z,54.60
2019-01-30T01:16:00.495Z,47.73
2019-01-30T01:18:29.600Z,46.00
2019-01-30T01:20:58.617Z,52.70
2019-01-30T01:23:27.640Z,59.40
2019-01-30T01:25:56.699Z,47.93
2019-01-30T01:28:25.774Z,55.07
2019-01-30T01:30:54.798Z,52.73
2019-01-30T01:33:25.989Z,53.90
2019-01-30T01:35:55.086Z,57.23
2019-01-30T01:38:24.405Z,62.23
2019-01-30T01:40:53.527Z,52.23
2019-01-30T01:43:22.583Z,59.43
2019-01-30T01:45:51.658Z,47.73
2019-01-30T01:48:20.710Z,48.90
2019-01-30T01:50:49.835Z,52.27
2019-01-30T01:53:18.969Z,58.03
2019-01-30T01:55:48.078Z,52.97
2019-01-30T01:58:17.157Z,52.87
2019-01-30T02:00:46.307Z,55.03
2019-01-30T02:03:15.378Z,50.17
2019-01-30T02:05:44.434Z,44.13
2019-01-30T02:08:13.502Z,52.70
2019-01-30T02:10:42.574Z,52.03
2019-01-30T02:13:11.602Z,50.20
2019-01-30T02:15:40.633Z,44.13
2019-01-30T02:18:09.776Z,51.57
2019-01-30T02:20:38.803Z,60.00
2019-01-30T02:23:07.827Z,50.63
2019-01-30T02:25:36.967Z,45.10
2019-01-30T02:28:06.042Z,53.10
2019-01-30T02:30:46.719Z,49.00
2019-01-30T02:33:05.912Z,51.53
2019-01-30T02:35:34.938Z,49.00
2019-01-30T02:38:03.979Z,52.30
2019-01-30T02:40:33.037Z,53.53
2019-01-30T02:43:02.210Z,55.30
2019-01-30T02:45:31.329Z,44.97
2019-01-30T02:48:00.403Z,45.63
2019-01-30T02:50:29.500Z,57.30
2019-01-30T02:52:58.586Z,48.67
2019-01-30T02:55:27.612Z,52.90
2019-01-30T02:57:56.689Z,51.87
2019-01-30T03:00:30.633Z,51.83
2019-01-30T03:02:59.735Z,55.10
2019-01-30T03:05:29.033Z,52.90
2019-01-30T03:07:58.060Z,61.20
2019-01-30T03:10:27.129Z,51.77
2019-01-30T03:12:56.325Z,50.30
2019-01-30T03:15:28.734Z,55.53
2019-01-30T03:17:57.861Z,57.90
2019-01-30T03:20:27.472Z,53.67
2019-01-30T03:22:56.574Z,49.27
2019-01-30T03:25:27.683Z,48.37
2019-01-30T03:27:56.713Z,48.37
2019-01-30T03:30:30.459Z,54.23
2019-01-30T03:32:59.513Z,47.30
2019-01-30T03:35:28.965Z,50.90
2019-01-30T03:37:57.997Z,48.80
2019-01-30T03:40:27.082Z,63.37
2019-01-30T03:42:56.116Z,52.00
2019-01-30T03:45:25.987Z,48.03
2019-01-30T03:47:55.052Z,53.60
2019-01-30T03:50:24.093Z,44.30
2019-01-30T03:52:53.144Z,54.13
2019-01-30T03:55:22.532Z,52.00
2019-01-30T03:57:51.605Z,49.43
2019-01-30T04:00:22.796Z,56.17
2019-01-30T04:02:52.257Z,49.30
2019-01-30T04:05:21.382Z,45.43
2019-01-30T04:07:50.490Z,58.30
2019-01-30T04:10:21.318Z,49.73
2019-01-30T04:12:50.564Z,44.10
2019-01-30T04:15:19.850Z,42.93
2019-01-30T04:17:48.929Z,49.33
2019-01-30T04:20:18.894Z,42.83
2019-01-30T04:22:48.403Z,48.80
2019-01-30T04:25:17.491Z,47.37
2019-01-30T04:27:46.541Z,40.10
2019-01-30T04:30:17.878Z,50.00
2019-01-30T04:32:46.930Z,47.40
2019-01-30T04:35:16.457Z,48.10
2019-01-30T04:37:45.487Z,44.93
2019-01-30T04:40:16.465Z,45.50
2019-01-30T04:42:45.551Z,43.67
2019-01-30T04:45:20.002Z,44.30
2019-01-30T04:47:49.076Z,41.17
2019-01-30T04:50:18.150Z,50.80
2019-01-30T04:52:47.201Z,37.00
2019-01-30T04:55:16.613Z,43.77
2019-01-30T04:57:45.742Z,39.80
2019-01-30T05:00:17.817Z,45.53
2019-01-30T05:02:47.229Z,38.13
2019-01-30T05:05:16.318Z,42.23
2019-01-30T05:07:45.341Z,45.17
2019-01-30T05:10:14.640Z,46.97
2019-01-30T05:12:43.713Z,44.00
2019-01-30T05:15:17.444Z,46.30
2019-01-30T05:17:46.538Z,46.87
2019-01-30T05:20:17.183Z,49.97
2019-01-30T05:22:46.291Z,41.43
2019-01-30T05:25:15.811Z,41.93
2019-01-30T05:27:45.427Z,43.77
2019-01-30T05:30:20.670Z,41.07
2019-01-30T05:32:49.689Z,50.50
2019-01-30T05:35:18.711Z,42.30
2019-01-30T05:37:47.773Z,39.73
2019-01-30T05:40:17.194Z,40.93
2019-01-30T05:42:46.249Z,44.63
2019-01-30T05:45:16.272Z,36.90
2019-01-30T05:47:45.340Z,48.90
2019-01-30T05:50:14.785Z,47.47
2019-01-30T05:52:43.852Z,41.53
2019-01-30T05:55:13.608Z,42.33
2019-01-30T05:57:43.051Z,44.63
2019-01-30T06:00:28.632Z,53.87
2019-01-30T06:02:57.781Z,36.40
2019-01-30T06:05:26.927Z,45.33
2019-01-30T06:07:55.957Z,42.63
2019-01-30T06:10:25.266Z,37.63
2019-01-30T06:12:54.350Z,44.77
2019-01-30T06:15:23.398Z,42.80
2019-01-30T06:17:52.457Z,37.60
2019-01-30T06:20:24.157Z,37.27
2019-01-30T06:22:53.320Z,41.50
2019-01-30T06:25:22.429Z,42.40
2019-01-30T06:27:51.474Z,54.30
2019-01-30T06:30:20.912Z,37.50
2019-01-30T06:32:50.368Z,45.60
2019-01-30T06:35:19.392Z,38.67
2019-01-30T06:37:48.630Z,50.60
2019-01-30T06:40:20.317Z,43.30
2019-01-30T06:42:49.451Z,36.50
2019-01-30T06:45:18.470Z,44.00
2019-01-30T06:47:47.542Z,44.10
2019-01-30T06:50:16.981Z,40.23
2019-01-30T06:52:46.004Z,40.87
2019-01-30T06:55:15.411Z,44.63
2019-01-30T06:57:44.434Z,38.00
2019-01-30T07:00:16.145Z,42.63
2019-01-30T07:02:45.186Z,40.53
2019-01-30T07:05:14.535Z,40.63
2019-01-30T07:07:43.733Z,40.87
2019-01-30T07:10:15.800Z,44.13
2019-01-30T07:12:44.835Z,44.03
2019-01-30T07:15:14.388Z,39.83
2019-01-30T07:17:43.429Z,37.00
2019-01-30T07:20:13.426Z,35.73
2019-01-30T07:22:42.548Z,33.70
2019-01-30T07:25:13.654Z,35.70
2019-01-30T07:27:42.729Z,37.40
2019-01-30T07:30:35.789Z,39.93
2019-01-30T07:33:05.300Z,42.77
2019-01-30T07:35:34.385Z,37.70
2019-01-30T07:38:03.461Z,34.73
2019-01-30T07:40:32.537Z,35.90
2019-01-30T07:43:01.605Z,30.30
2019-01-30T07:45:30.835Z,35.50
2019-01-30T07:47:59.921Z,34.33
2019-01-30T07:50:29.077Z,32.10
2019-01-30T07:52:58.898Z,35.83
2019-01-30T07:55:29.473Z,35.60
2019-01-30T07:57:58.481Z,35.07
2019-01-30T08:00:32.612Z,36.20
2019-01-30T08:03:01.715Z,31.33
2019-01-30T08:05:30.723Z,34.17
2019-01-30T08:07:59.739Z,32.30
2019-01-30T08:10:29.103Z,31.73
2019-01-30T08:12:58.237Z,29.33
2019-01-30T08:15:27.593Z,30.83
2019-01-30T08:17:56.616Z,29.20
2019-01-30T08:20:25.637Z,31.40
2019-01-30T08:22:54.814Z,30.43
2019-01-30T08:25:24.480Z,28.10
2019-01-30T08:27:53.696Z,31.83
2019-01-30T08:30:25.498Z,29.33
2019-01-30T08:33:04.241Z,33.90
2019-01-30T08:35:28.996Z,30.27
2019-01-30T08:37:58.069Z,29.93
2019-01-30T08:40:27.115Z,30.77
2019-01-30T08:42:56.186Z,29.77
2019-01-30T08:45:27.365Z,28.90
2019-01-30T08:47:56.429Z,31.70
2019-01-30T08:50:25.778Z,28.27
2019-01-30T08:52:54.807Z,29.10
2019-01-30T08:55:23.868Z,27.50
2019-01-30T08:57:52.902Z,29.13
2019-01-30T09:00:22.804Z,29.13
2019-01-30T09:02:51.864Z,28.97
2019-01-30T09:05:20.867Z,28.80
2019-01-30T09:07:49.926Z,27.63
2019-01-30T09:10:20.615Z,30.83
2019-01-30T09:12:49.866Z,27.63
2019-01-30T09:15:20.651Z,27.57
2019-01-30T09:17:49.663Z,26.77
2019-01-30T09:20:20.279Z,27.93
2019-01-30T09:22:49.305Z,27.80
2019-01-30T09:25:20.173Z,27.47
2019-01-30T09:27:49.777Z,27.40
2019-01-30T09:30:21.125Z,28.00
2019-01-30T09:32:50.283Z,27.00
2019-01-30T09:35:19.411Z,27.07
2019-01-30T09:37:48.653Z,27.00
2019-01-30T09:40:18.015Z,27.93
2019-01-30T09:42:47.377Z,28.60
2019-01-30T09:45:16.856Z,27.20
2019-01-30T09:47:46.022Z,27.03
2019-01-30T09:50:17.864Z,26.10
2019-01-30T09:52:47.004Z,34.87
2019-01-30T09:55:16.251Z,27.50
2019-01-30T09:57:45.244Z,25.83
2019-01-30T10:00:28.939Z,27.50
2019-01-30T10:02:58.284Z,26.17
2019-01-30T10:05:28.513Z,25.90
2019-01-30T10:07:57.570Z,25.60
2019-01-30T10:10:28.729Z,25.70
2019-01-30T10:12:57.756Z,24.30
2019-01-30T10:15:32.074Z,26.00
2019-01-30T10:18:01.180Z,25.13
2019-01-30T10:20:30.273Z,26.87
2019-01-30T10:22:59.685Z,26.30
2019-01-30T10:25:28.744Z,25.37
2019-01-30T10:27:57.789Z,26.70
2019-01-30T10:30:29.171Z,24.57
2019-01-30T10:32:58.198Z,22.80
2019-01-30T10:35:27.313Z,23.80
2019-01-30T10:37:56.748Z,24.73
2019-01-30T10:40:25.749Z,24.37
2019-01-30T10:42:57.263Z,26.47
2019-01-30T10:45:25.866Z,26.20
2019-01-30T10:47:54.921Z,23.63
2019-01-30T10:50:25.767Z,22.97
2019-01-30T10:52:54.816Z,23.13
2019-01-30T10:55:25.642Z,23.60
2019-01-30T10:57:56.771Z,23.60
2019-01-30T11:00:31.334Z,23.83
2019-01-30T11:03:00.370Z,24.50
2019-01-30T11:05:29.373Z,22.67
2019-01-30T11:07:58.536Z,23.83
2019-01-30T11:10:27.536Z,21.73
2019-01-30T11:12:56.930Z,22.83
2019-01-30T11:15:27.332Z,22.77
2019-01-30T11:17:56.482Z,21.67
2019-01-30T11:20:25.584Z,22.40
2019-01-30T11:22:54.640Z,23.37
2019-01-30T11:25:28.148Z,23.37
2019-01-30T11:27:57.183Z,22.10
2019-01-30T11:30:26.445Z,22.30
2019-01-30T11:32:55.667Z,23.33
2019-01-30T11:35:24.713Z,22.77
2019-01-30T11:37:53.863Z,23.07
2019-01-30T11:40:23.484Z,22.47
2019-01-30T11:42:52.520Z,21.77
2019-01-30T11:45:50.042Z,21.30
2019-01-30T11:48:19.065Z,21.20
2019-01-30T11:50:48.123Z,22.67
2019-01-30T11:53:17.169Z,20.97
2019-01-30T11:55:46.212Z,21.90
2019-01-30T11:58:15.296Z,22.13
2019-01-30T12:00:51.890Z,21.77
2019-01-30T12:03:20.938Z,23.40
2019-01-30T12:05:50.035Z,24.43
2019-01-30T12:08:19.139Z,21.90
2019-01-30T12:10:48.509Z,21.00
2019-01-30T12:13:17.524Z,22.47
2019-01-30T12:15:46.573Z,23.67
2019-01-30T12:18:15.579Z,22.03
2019-01-30T12:20:44.636Z,21.27
2019-01-30T12:23:13.751Z,22.63
2019-01-30T12:25:42.765Z,23.30
2019-01-30T12:28:11.855Z,22.63
2019-01-30T12:30:40.856Z,21.57
2019-01-30T12:33:09.899Z,22.80
2019-01-30T12:35:38.906Z,22.37
2019-01-30T12:38:07.942Z,22.63
2019-01-30T12:40:36.947Z,22.70
2019-01-30T12:43:07.113Z,25.03
2019-01-30T12:45:36.606Z,23.40
2019-01-30T12:48:06.948Z,22.67
2019-01-30T12:50:35.963Z,21.63
2019-01-30T12:53:05.281Z,17.53
2019-01-30T12:55:34.433Z,16.53
2019-01-30T12:58:03.595Z,15.70
2019-01-30T13:00:35.265Z,15.37
2019-01-30T13:03:04.523Z,14.57
2019-01-30T13:05:34.088Z,14.77
2019-01-30T13:08:03.281Z,15.37
2019-01-30T13:10:32.280Z,13.47
2019-01-30T13:13:01.296Z,14.10
2019-01-30T13:15:30.360Z,13.40
2019-01-30T13:17:59.693Z,12.63
2019-01-30T13:20:28.764Z,16.30
2019-01-30T13:22:57.830Z,15.13
2019-01-30T13:25:31.899Z,13.07
2019-01-30T13:28:00.903Z,13.30
2019-01-30T13:30:34.820Z,14.60
2019-01-30T13:33:04.641Z,13.97
2019-01-30T13:35:33.688Z,13.60
2019-01-30T13:38:02.735Z,12.50
2019-01-30T13:40:34.041Z,13.03
2019-01-30T13:43:03.088Z,13.13
2019-01-30T13:45:32.539Z,14.13
2019-01-30T13:48:01.606Z,13.63
2019-01-30T13:50:30.825Z,13.83
2019-01-30T13:52:59.857Z,12.63
2019-01-30T13:55:29.221Z,12.17
2019-01-30T13:57:58.278Z,11.60
2019-01-30T14:00:31.686Z,18.87
2019-01-30T14:03:00.940Z,12.40
2019-01-30T14:05:31.286Z,13.10
2019-01-30T14:08:00.318Z,13.70
2019-01-30T14:10:29.576Z,13.77
2019-01-30T14:12:58.588Z,11.20
2019-01-30T14:15:29.927Z,15.33
2019-01-30T14:17:58.946Z,13.23
2019-01-30T14:20:28.004Z,12.37
2019-01-30T14:22:57.024Z,13.03
2019-01-30T14:25:26.299Z,12.93
2019-01-30T14:27:55.327Z,12.03
2019-01-30T14:30:26.969Z,12.57
2019-01-30T14:32:56.021Z,11.73
2019-01-30T14:35:26.722Z,11.97
2019-01-30T14:37:55.829Z,11.67
2019-01-30T14:40:24.870Z,11.70
2019-01-30T14:42:53.960Z,11.03
2019-01-30T14:45:23.319Z,12.00
2019-01-30T14:47:52.452Z,15.40
2019-01-30T14:50:23.398Z,12.07
2019-01-30T14:52:52.454Z,11.83
2019-01-30T14:55:21.613Z,12.33
2019-01-30T14:57:51.203Z,14.27
2019-01-30T15:00:23.096Z,13.43
2019-01-30T15:02:52.119Z,13.83
2019-01-30T15:05:22.824Z,14.63
2019-01-30T15:07:52.030Z,14.57
2019-01-30T15:10:21.527Z,14.63
2019-01-30T15:12:50.944Z,14.47
2019-01-30T15:15:22.001Z,14.73
2019-01-30T15:17:51.033Z,14.87
2019-01-30T15:20:22.028Z,15.57
2019-01-30T15:22:51.421Z,20.23
2019-01-30T15:25:21.314Z,15.20
2019-01-30T15:27:50.329Z,16.50
2019-01-30T15:30:22.122Z,15.83
2019-01-30T15:32:51.202Z,16.73
2019-01-30T15:35:20.216Z,16.20
2019-01-30T15:37:49.220Z,17.17
2019-01-30T15:40:20.636Z,15.87
2019-01-30T15:42:49.782Z,16.23
2019-01-30T15:45:20.256Z,15.80
2019-01-30T15:47:49.439Z,18.37
2019-01-30T15:50:20.769Z,16.40
2019-01-30T15:52:49.812Z,16.60
2019-01-30T15:55:18.960Z,14.20
2019-01-30T15:57:50.745Z,14.43
2019-01-30T16:00:23.168Z,15.80
2019-01-30T16:02:52.208Z,17.00
2019-01-30T16:05:21.307Z,17.23
2019-01-30T16:07:50.421Z,18.80
2019-01-30T16:10:19.439Z,17.43
2019-01-30T16:12:48.524Z,16.73
2019-01-30T16:15:27.623Z,17.03
2019-01-30T16:17:56.671Z,17.10
2019-01-30T16:20:25.728Z,18.00
2019-01-30T16:22:54.740Z,20.50
2019-01-30T16:25:23.829Z,18.00
2019-01-30T16:27:52.835Z,18.00
2019-01-30T16:30:23.824Z,18.10
2019-01-30T16:32:52.908Z,18.20
2019-01-30T16:35:27.368Z,17.80
2019-01-30T16:37:56.573Z,17.53
2019-01-30T16:40:25.584Z,18.90
2019-01-30T16:42:55.013Z,17.50
2019-01-30T16:45:27.191Z,18.53
2019-01-30T16:47:56.255Z,17.33
2019-01-30T16:50:25.497Z,18.17
2019-01-30T16:52:54.684Z,17.37
2019-01-30T16:55:23.724Z,18.00
2019-01-30T16:57:53.057Z,16.30
2019-01-30T17:00:25.296Z,16.90
2019-01-30T17:02:54.394Z,19.03
2019-01-30T17:05:23.710Z,18.97
2019-01-30T17:07:52.733Z,20.43
2019-01-30T17:10:21.901Z,18.80
2019-01-30T17:12:50.982Z,19.10
2019-01-30T17:15:22.050Z,18.33
2019-01-30T17:17:51.162Z,16.90
2019-01-30T17:20:22.469Z,20.23
2019-01-30T17:22:51.892Z,19.17
2019-01-30T17:25:21.100Z,18.43
2019-01-30T17:27:50.348Z,20.03
2019-01-30T17:30:29.453Z,19.17
2019-01-30T17:32:58.519Z,18.03
2019-01-30T17:35:28.862Z,24.07
2019-01-30T17:37:57.901Z,20.60
2019-01-30T17:40:27.273Z,19.60
2019-01-30T17:42:56.439Z,18.93
2019-01-30T17:45:25.454Z,22.33
2019-01-30T17:47:54.712Z,21.70
2019-01-30T17:50:24.577Z,20.27
2019-01-30T17:52:53.644Z,21.50
2019-01-30T17:55:25.878Z,21.37
2019-01-30T17:57:53.912Z,22.90
2019-01-30T18:00:35.070Z,20.53
2019-01-30T18:03:04.253Z,22.67
2019-01-30T18:05:33.588Z,21.83
2019-01-30T18:08:02.596Z,24.20
2019-01-30T18:10:31.648Z,22.80
2019-01-30T18:13:00.661Z,24.10
2019-01-30T18:15:31.148Z,22.57
2019-01-30T18:18:00.293Z,23.23
2019-01-30T18:20:29.302Z,23.70
2019-01-30T18:22:58.309Z,23.30
2019-01-30T18:25:27.430Z,25.93
2019-01-30T18:27:56.565Z,23.70
2019-01-30T18:30:25.573Z,22.50
2019-01-30T18:32:54.640Z,25.10
2019-01-30T18:35:24.008Z,22.37
2019-01-30T18:37:53.037Z,23.93
2019-01-30T18:40:23.007Z,23.67
2019-01-30T18:42:52.353Z,24.20
2019-01-30T18:45:23.095Z,22.20
2019-01-30T18:47:52.435Z,24.13
2019-01-30T18:50:23.375Z,25.37
2019-01-30T18:52:52.381Z,22.13
2019-01-30T18:55:21.761Z,23.40
2019-01-30T18:57:51.242Z,23.63
2019-01-30T19:00:40.637Z,22.80
2019-01-30T19:03:13.367Z,23.87
2019-01-30T19:05:42.471Z,24.27
2019-01-30T19:08:11.511Z,23.80
2019-01-30T19:10:40.640Z,24.10
2019-01-30T19:13:09.700Z,22.67
2019-01-30T19:15:38.855Z,23.60
2019-01-30T19:18:08.728Z,22.70
2019-01-30T19:20:39.723Z,23.00
2019-01-30T19:23:08.758Z,27.43
2019-01-30T19:25:37.819Z,27.07
2019-01-30T19:28:07.536Z,23.97
2019-01-30T19:30:36.639Z,23.33
2019-01-30T19:33:08.063Z,21.20
2019-01-30T19:35:37.117Z,23.83
2019-01-30T19:38:07.090Z,23.53
2019-01-30T19:40:36.132Z,22.67
2019-01-30T19:43:05.381Z,24.33
2019-01-30T19:45:34.452Z,22.63
2019-01-30T19:48:03.489Z,23.10
2019-01-30T19:50:32.534Z,23.40
2019-01-30T19:53:01.680Z,22.53
2019-01-30T19:55:30.703Z,21.97
2019-01-30T19:57:59.765Z,23.50
2019-01-30T20:00:37.019Z,25.53
2019-01-30T20:03:08.815Z,25.30
2019-01-30T20:05:37.867Z,24.00
2019-01-30T20:08:06.977Z,24.00
2019-01-30T20:10:36.172Z,27.97
2019-01-30T20:13:06.495Z,25.60
2019-01-30T20:15:35.527Z,23.93
2019-01-30T20:18:04.885Z,22.30
2019-01-30T20:20:33.943Z,25.03
2019-01-30T20:23:02.960Z,24.30
2019-01-30T20:25:34.185Z,24.50
2019-01-30T20:28:03.227Z,23.87
2019-01-30T20:30:32.342Z,24.40
2019-01-30T20:33:01.394Z,25.30
2019-01-30T20:35:30.468Z,26.00
2019-01-30T20:37:59.481Z,22.03
2019-01-30T20:40:29.218Z,23.27
2019-01-30T20:42:58.501Z,23.90
2019-01-30T20:45:33.787Z,23.83
2019-01-30T20:47:58.279Z,23.03
2019-01-30T20:50:28.826Z,23.93
2019-01-30T20:52:58.146Z,23.60
2019-01-30T20:55:27.397Z,23.03
2019-01-30T20:57:56.417Z,22.73
2019-01-30T21:00:30.811Z,21.57
2019-01-30T21:02:59.977Z,22.67
2019-01-30T21:05:30.307Z,21.93
2019-01-30T21:07:59.257Z,24.93
2019-01-30T21:10:33.755Z,22.57
2019-01-30T21:13:03.214Z,22.07
2019-01-30T21:15:32.249Z,21.17
2019-01-30T21:18:01.259Z,22.57
2019-01-30T21:20:30.352Z,33.63
2019-01-30T21:22:59.423Z,24.07
2019-01-30T21:25:28.777Z,22.73
2019-01-30T21:27:57.741Z,25.20
2019-01-30T21:30:35.158Z,26.47
2019-01-30T21:33:04.312Z,27.40
2019-01-30T21:35:33.323Z,27.00
2019-01-30T21:38:02.382Z,30.50
2019-01-30T21:40:31.431Z,29.33
2019-01-30T21:43:00.440Z,28.80
2019-01-30T21:45:31.534Z,28.70
2019-01-30T21:48:00.275Z,32.00
2019-01-30T21:50:29.503Z,28.90
2019-01-30T21:52:58.512Z,29.17
2019-01-30T21:55:27.558Z,30.67
2019-01-30T21:57:56.650Z,28.43
2019-01-30T22:00:27.712Z,27.00
2019-01-30T22:02:57.041Z,28.20
2019-01-30T22:05:26.235Z,29.87
2019-01-30T22:08:01.022Z,28.90
2019-01-30T22:10:27.915Z,28.63
2019-01-30T22:12:57.029Z,30.63
2019-01-30T22:15:26.394Z,30.40
2019-01-30T22:17:55.465Z,28.30
2019-01-30T22:20:25.845Z,27.97
2019-01-30T22:22:55.305Z,28.40
2019-01-30T22:25:25.569Z,30.53
2019-01-30T22:27:55.046Z,28.43
2019-01-30T22:30:26.220Z,29.10
2019-01-30T22:32:55.363Z,29.50
2019-01-30T22:35:24.421Z,28.83
2019-01-30T22:37:53.443Z,27.43
2019-01-30T22:40:22.501Z,28.63
2019-01-30T22:42:51.545Z,27.47
2019-01-30T22:45:20.700Z,28.83
2019-01-30T22:47:49.715Z,29.17
2019-01-30T22:50:19.408Z,28.67
2019-01-30T22:52:48.435Z,31.47
2019-01-30T22:55:19.119Z,27.10
2019-01-30T22:57:50.802Z,31.93
2019-01-30T23:00:57.753Z,30.50
2019-01-30T23:03:35.357Z,28.67
2019-01-30T23:06:26.479Z,29.37
2019-01-30T23:09:10.783Z,28.73
2019-01-30T23:12:51.547Z,28.80
2019-01-30T23:15:28.540Z,29.40
2019-01-30T23:18:34.852Z,29.23
2019-01-30T23:21:13.033Z,32.30
2019-01-30T23:24:14.814Z,30.80
2019-01-30T23:26:49.506Z,29.03
2019-01-30T23:30:06.493Z,30.43
2019-01-30T23:33:00.725Z,30.57
2019-01-30T23:36:07.609Z,29.53
2019-01-30T23:38:59.344Z,28.80
2019-01-30T23:41:49.635Z,30.50
2019-01-30T23:44:59.461Z,30.00
2019-01-30T23:48:09.355Z,28.93
2019-01-30T23:50:59.666Z,29.63
2019-01-30T23:54:03.339Z,29.73
2019-01-30T23:57:07.425Z,28.73
